createdAt,value
2019-03-29T00:00:23.677Z,43.76
2019-03-29T00:01:24.879Z,43.76
2019-03-29T00:02:23.613Z,43.76
2019-03-29T00:03:23.640Z,43.76
2019-03-29T00:04:23.586Z,43.76
2019-03-29T00:05:23.575Z,43.76
2019-03-29T00:06:23.570Z,43.76
2019-03-29T00:07:23.558Z,43.76
2019-03-29T00:08:23.580Z,43.76
2019-03-29T00:09:23.534Z,43.76
2019-03-29T00:10:23.536Z,43.76
2019-03-29T00:11:23.513Z,43.76
2019-03-29T00:12:23.502Z,43.76
2019-03-29T00:13:23.521Z,43.76
2019-03-29T00:14:23.756Z,43.76
2019-03-29T00:15:23.470Z,43.66
2019-03-29T00:16:23.465Z,43.66
2019-03-29T00:17:23.452Z,43.66
2019-03-29T00:18:23.437Z,43.66
2019-03-29T00:19:23.458Z,43.66
2019-03-29T00:20:23.415Z,43.66
2019-03-29T00:21:23.406Z,43.66
2019-03-29T00:22:23.396Z,43.66
2019-03-29T00:23:23.381Z,43.66
2019-03-29T00:24:23.394Z,43.66
2019-03-29T00:25:23.361Z,43.66
2019-03-29T00:26:23.353Z,43.66
2019-03-29T00:27:23.345Z,43.66
2019-03-29T00:28:23.335Z,43.66
2019-03-29T00:29:23.353Z,43.66
2019-03-29T00:30:23.311Z,43.66
2019-03-29T00:31:23.293Z,43.66
2019-03-29T00:32:23.289Z,43.66
2019-03-29T00:33:23.887Z,43.66
2019-03-29T00:34:23.301Z,43.56
2019-03-29T00:35:23.257Z,43.56
2019-03-29T00:36:23.247Z,43.56
2019-03-29T00:37:23.235Z,43.56
2019-03-29T00:38:23.250Z,43.56
2019-03-29T00:39:23.258Z,43.56
2019-03-29T00:40:23.201Z,43.56
2019-03-29T00:41:23.191Z,43.56
2019-03-29T00:42:23.180Z,43.56
2019-03-29T00:43:23.189Z,43.56
2019-03-29T00:44:23.191Z,43.56
2019-03-29T00:45:23.145Z,43.56
2019-03-29T00:46:23.164Z,43.56
2019-03-29T00:47:23.124Z,43.56
2019-03-29T00:48:23.115Z,43.56
2019-03-29T00:49:23.106Z,43.56
2019-03-29T00:50:23.089Z,43.56
2019-03-29T00:51:23.118Z,43.56
2019-03-29T00:52:23.071Z,43.56
2019-03-29T00:53:23.059Z,43.56
2019-03-29T00:54:23.048Z,43.56
2019-03-29T00:55:23.040Z,43.56
2019-03-29T00:56:23.082Z,43.66
2019-03-29T00:57:23.015Z,43.66
2019-03-29T00:58:23.203Z,43.66
2019-03-29T00:59:22.994Z,43.66
2019-03-29T01:00:22.980Z,43.66
2019-03-29T01:01:22.999Z,43.66
2019-03-29T01:02:22.959Z,43.66
2019-03-29T01:03:22.950Z,43.66
2019-03-29T01:04:22.942Z,43.66
2019-03-29T01:05:22.930Z,43.66
2019-03-29T01:06:23.070Z,43.66
2019-03-29T01:07:22.912Z,43.66
2019-03-29T01:08:22.893Z,43.66
2019-03-29T01:09:22.890Z,43.56
2019-03-29T01:10:22.912Z,43.56
2019-03-29T01:11:22.904Z,43.56
2019-03-29T01:12:22.860Z,43.56
2019-03-29T01:13:22.841Z,43.56
2019-03-29T01:14:22.827Z,43.56
2019-03-29T01:15:22.822Z,43.56
2019-03-29T01:16:22.857Z,43.56
2019-03-29T01:17:22.824Z,43.56
2019-03-29T01:18:22.794Z,43.56
2019-03-29T01:19:22.783Z,43.56
2019-03-29T01:20:22.770Z,43.56
2019-03-29T01:21:22.758Z,43.56
2019-03-29T01:22:22.778Z,43.56
2019-03-29T01:23:23.962Z,43.56
2019-03-29T01:24:22.725Z,43.56
2019-03-29T01:25:22.718Z,43.56
2019-03-29T01:26:22.702Z,43.56
2019-03-29T01:27:22.722Z,43.56
2019-03-29T01:28:22.679Z,43.56
2019-03-29T01:29:22.679Z,43.56
2019-03-29T01:30:23.034Z,43.56
2019-03-29T01:31:22.649Z,43.56
2019-03-29T01:32:22.671Z,43.56
2019-03-29T01:33:22.626Z,43.56
2019-03-29T01:34:22.616Z,43.56
2019-03-29T01:35:22.611Z,43.56
2019-03-29T01:36:22.590Z,43.46
2019-03-29T01:37:22.613Z,43.46
2019-03-29T01:38:24.329Z,43.56
2019-03-29T01:39:22.561Z,43.46
2019-03-29T01:40:22.550Z,43.46
2019-03-29T01:41:22.535Z,43.46
2019-03-29T01:42:22.533Z,43.46
2019-03-29T01:43:22.545Z,43.46
2019-03-29T01:44:22.506Z,43.46
2019-03-29T01:45:22.496Z,43.46
2019-03-29T01:46:22.485Z,43.46
2019-03-29T01:47:22.503Z,43.46
2019-03-29T01:48:23.116Z,43.46
2019-03-29T01:49:22.451Z,43.46
2019-03-29T01:50:22.439Z,43.46
2019-03-29T01:51:22.432Z,43.46
2019-03-29T01:52:22.464Z,43.56
2019-03-29T01:53:22.413Z,43.46
2019-03-29T01:54:22.402Z,43.46
2019-03-29T01:55:23.087Z,43.56
2019-03-29T01:56:22.374Z,43.56
2019-03-29T01:57:22.408Z,43.46
2019-03-29T01:58:22.354Z,43.46
2019-03-29T01:59:22.348Z,43.46
2019-03-29T02:00:22.339Z,43.46
2019-03-29T02:01:22.326Z,43.46
2019-03-29T02:02:22.362Z,43.46
2019-03-29T02:03:22.304Z,43.46
2019-03-29T02:04:22.320Z,43.46
2019-03-29T02:05:22.283Z,43.46
2019-03-29T02:06:22.275Z,43.46
2019-03-29T02:07:22.262Z,43.46
2019-03-29T02:08:35.196Z,43.46
2019-03-29T02:09:23.240Z,43.46
2019-03-29T02:10:22.879Z,43.46
2019-03-29T02:11:22.221Z,43.46
2019-03-29T02:12:22.207Z,43.46
2019-03-29T02:13:22.219Z,43.46
2019-03-29T02:14:22.222Z,43.46
2019-03-29T02:15:22.177Z,43.46
2019-03-29T02:16:22.159Z,43.46
2019-03-29T02:17:22.229Z,43.46
2019-03-29T02:18:22.142Z,43.46
2019-03-29T02:19:22.172Z,43.46
2019-03-29T02:20:22.116Z,43.46
2019-03-29T02:21:22.109Z,43.46
2019-03-29T02:22:22.102Z,43.46
2019-03-29T02:23:22.087Z,43.36
2019-03-29T02:24:22.118Z,43.46
2019-03-29T02:25:22.068Z,43.36
2019-03-29T02:26:22.053Z,43.36
2019-03-29T02:27:22.041Z,43.36
2019-03-29T02:28:22.029Z,43.36
2019-03-29T02:29:22.048Z,43.36
2019-03-29T02:30:22.067Z,43.36
2019-03-29T02:31:25.802Z,43.36
2019-03-29T02:32:21.992Z,43.36
2019-03-29T02:33:21.981Z,43.36
2019-03-29T02:34:21.967Z,43.36
2019-03-29T02:35:22.006Z,43.36
2019-03-29T02:36:21.945Z,43.36
2019-03-29T02:37:21.933Z,43.36
2019-03-29T02:38:23.615Z,43.36
2019-03-29T02:39:21.953Z,43.36
2019-03-29T02:40:22.816Z,43.36
2019-03-29T02:41:21.894Z,43.36
2019-03-29T02:42:21.881Z,43.36
2019-03-29T02:43:21.870Z,43.36
2019-03-29T02:44:21.885Z,43.36
2019-03-29T02:45:21.847Z,43.36
2019-03-29T02:46:21.836Z,43.36
2019-03-29T02:47:22.062Z,43.36
2019-03-29T02:48:21.839Z,43.36
2019-03-29T02:49:21.805Z,43.36
2019-03-29T02:50:21.797Z,43.36
2019-03-29T02:51:21.776Z,43.36
2019-03-29T02:52:21.803Z,43.36
2019-03-29T02:53:21.757Z,43.36
2019-03-29T02:54:21.749Z,43.36
2019-03-29T02:55:21.770Z,43.36
2019-03-29T02:56:21.722Z,43.36
2019-03-29T02:57:21.757Z,43.36
2019-03-29T02:58:21.706Z,43.36
2019-03-29T02:59:21.692Z,43.36
2019-03-29T03:00:21.687Z,43.36
2019-03-29T03:01:21.670Z,43.36
2019-03-29T03:02:26.090Z,43.36
2019-03-29T03:03:21.675Z,43.36
2019-03-29T03:04:21.634Z,43.36
2019-03-29T03:05:21.624Z,43.26
2019-03-29T03:06:21.619Z,43.36
2019-03-29T03:07:21.639Z,43.36
2019-03-29T03:08:21.595Z,43.26
2019-03-29T03:09:21.584Z,43.26
2019-03-29T03:10:21.571Z,43.26
2019-03-29T03:11:21.591Z,43.26
2019-03-29T03:12:21.586Z,43.26
2019-03-29T03:13:21.534Z,43.26
2019-03-29T03:14:21.532Z,43.26
2019-03-29T03:15:21.526Z,43.26
2019-03-29T03:16:21.554Z,43.26
2019-03-29T03:17:21.499Z,43.26
2019-03-29T03:18:21.484Z,43.26
2019-03-29T03:19:21.475Z,43.26
2019-03-29T03:20:21.465Z,43.26
2019-03-29T03:21:21.505Z,43.26
2019-03-29T03:22:21.444Z,43.26
2019-03-29T03:23:21.433Z,43.26
2019-03-29T03:24:21.421Z,43.26
2019-03-29T03:25:21.420Z,43.26
2019-03-29T03:26:21.425Z,43.26
2019-03-29T03:27:21.423Z,43.26
2019-03-29T03:28:21.376Z,43.26
2019-03-29T03:29:21.362Z,43.26
2019-03-29T03:30:21.358Z,43.26
2019-03-29T03:31:21.625Z,43.26
2019-03-29T03:32:21.369Z,43.26
2019-03-29T03:33:21.325Z,43.26
2019-03-29T03:34:21.331Z,43.26
2019-03-29T03:35:21.311Z,43.26
2019-03-29T03:36:21.293Z,43.26
2019-03-29T03:37:21.308Z,43.26
2019-03-29T03:38:21.265Z,43.26
2019-03-29T03:39:31.596Z,43.26
2019-03-29T03:40:22.248Z,43.26
2019-03-29T03:41:21.237Z,43.26
2019-03-29T03:42:21.264Z,43.26
2019-03-29T03:43:21.216Z,43.26
2019-03-29T03:44:21.207Z,43.26
2019-03-29T03:45:21.190Z,43.26
2019-03-29T03:46:21.183Z,43.26
2019-03-29T03:47:21.207Z,43.26
2019-03-29T03:48:21.203Z,43.26
2019-03-29T03:49:21.147Z,43.26
2019-03-29T03:50:21.141Z,43.26
2019-03-29T03:51:21.128Z,43.26
2019-03-29T03:52:21.114Z,43.26
2019-03-29T03:53:21.244Z,43.26
2019-03-29T03:54:21.095Z,43.26
2019-03-29T03:55:21.087Z,43.26
2019-03-29T03:56:21.187Z,43.26
2019-03-29T03:57:21.060Z,43.16
2019-03-29T03:58:21.083Z,43.16
2019-03-29T03:59:21.037Z,43.26
2019-03-29T04:00:21.035Z,43.16
2019-03-29T04:01:21.016Z,43.16
2019-03-29T04:02:21.007Z,43.16
2019-03-29T04:03:21.170Z,43.16
2019-03-29T04:04:20.991Z,43.16
2019-03-29T04:05:20.971Z,43.16
2019-03-29T04:06:20.960Z,43.16
2019-03-29T04:07:20.954Z,43.16
2019-03-29T04:08:20.968Z,43.16
2019-03-29T04:09:20.930Z,43.16
2019-03-29T04:10:20.918Z,43.16
2019-03-29T04:11:20.906Z,43.16
2019-03-29T04:12:20.945Z,43.16
2019-03-29T04:13:20.929Z,43.16
2019-03-29T04:14:20.903Z,43.16
2019-03-29T04:15:20.861Z,43.16
2019-03-29T04:16:20.856Z,43.16
2019-03-29T04:17:20.869Z,43.16
2019-03-29T04:18:20.886Z,43.16
2019-03-29T04:19:20.827Z,43.16
2019-03-29T04:20:20.813Z,43.16
2019-03-29T04:21:20.805Z,43.16
2019-03-29T04:22:20.792Z,43.16
2019-03-29T04:23:20.808Z,43.16
2019-03-29T04:24:20.767Z,43.16
2019-03-29T04:25:20.752Z,43.16
2019-03-29T04:26:20.745Z,43.16
2019-03-29T04:27:20.740Z,43.16
2019-03-29T04:28:20.762Z,43.16
2019-03-29T04:29:20.711Z,43.06
2019-03-29T04:30:20.703Z,43.16
2019-03-29T04:31:20.689Z,43.06
2019-03-29T04:32:20.677Z,43.06
2019-03-29T04:33:20.723Z,43.06
2019-03-29T04:34:20.658Z,43.06
2019-03-29T04:35:20.644Z,43.06
2019-03-29T04:36:20.634Z,43.06
2019-03-29T04:37:20.630Z,43.06
2019-03-29T04:38:20.650Z,43.06
2019-03-29T04:39:20.598Z,43.06
2019-03-29T04:40:20.623Z,43.06
2019-03-29T04:41:20.577Z,43.06
2019-03-29T04:42:20.573Z,43.06
2019-03-29T04:43:20.591Z,43.06
2019-03-29T04:44:20.551Z,43.06
2019-03-29T04:45:20.537Z,42.96
2019-03-29T04:46:20.526Z,42.96
2019-03-29T04:47:20.514Z,43.06
2019-03-29T04:48:20.543Z,42.96
2019-03-29T04:49:20.495Z,42.96
2019-03-29T04:50:20.479Z,42.96
2019-03-29T04:51:20.470Z,42.96
2019-03-29T04:52:20.460Z,42.96
2019-03-29T04:53:20.482Z,42.96
2019-03-29T04:54:20.463Z,42.96
2019-03-29T04:55:20.427Z,42.96
2019-03-29T04:56:20.418Z,42.96
2019-03-29T04:57:20.401Z,42.96
2019-03-29T04:58:20.394Z,42.96
2019-03-29T04:59:20.408Z,42.96
2019-03-29T05:00:20.405Z,42.96
2019-03-29T05:01:20.363Z,42.96
2019-03-29T05:02:20.353Z,42.96
2019-03-29T05:03:20.361Z,42.96
2019-03-29T05:04:20.358Z,42.96
2019-03-29T05:05:20.312Z,42.96
2019-03-29T05:06:20.307Z,42.96
2019-03-29T05:07:20.293Z,42.86
2019-03-29T05:08:20.281Z,42.96
2019-03-29T05:09:20.309Z,42.86
2019-03-29T05:10:21.910Z,42.96
2019-03-29T05:11:20.252Z,42.96
2019-03-29T05:12:20.242Z,42.96
2019-03-29T05:13:20.232Z,42.96
2019-03-29T05:14:20.223Z,42.96
2019-03-29T05:15:20.241Z,42.96
2019-03-29T05:16:20.208Z,42.96
2019-03-29T05:17:20.186Z,42.86
2019-03-29T05:18:20.176Z,42.86
2019-03-29T05:19:20.166Z,42.86
2019-03-29T05:20:20.187Z,42.86
2019-03-29T05:21:20.143Z,42.86
2019-03-29T05:22:20.129Z,42.86
2019-03-29T05:23:20.118Z,42.86
2019-03-29T05:24:20.111Z,42.86
2019-03-29T05:25:20.131Z,42.76
2019-03-29T05:26:20.101Z,42.76
2019-03-29T05:27:20.077Z,42.76
2019-03-29T05:28:20.068Z,42.76
2019-03-29T05:29:20.061Z,42.66
2019-03-29T05:30:20.078Z,42.63
2019-03-29T05:31:20.073Z,42.54
2019-03-29T05:32:20.020Z,42.54
2019-03-29T05:33:20.014Z,42.54
2019-03-29T05:34:20.007Z,42.54
2019-03-29T05:35:19.991Z,42.44
2019-03-29T05:36:20.028Z,42.44
2019-03-29T05:37:19.973Z,42.33
2019-03-29T05:38:19.957Z,42.33
2019-03-29T05:39:19.947Z,42.33
2019-03-29T05:40:34.048Z,42.24
2019-03-29T05:41:20.951Z,42.24
2019-03-29T05:42:19.919Z,42.24
2019-03-29T05:43:19.934Z,42.13
2019-03-29T05:44:19.896Z,42.13
2019-03-29T05:45:19.884Z,42.13
2019-03-29T05:46:19.939Z,42.13
2019-03-29T05:47:19.864Z,42.13
2019-03-29T05:48:19.852Z,42.03
2019-03-29T05:49:19.848Z,42.02
2019-03-29T05:50:19.836Z,42.02
2019-03-29T05:51:19.844Z,41.91
2019-03-29T05:52:19.811Z,41.91
2019-03-29T05:53:19.798Z,41.91
2019-03-29T05:54:19.783Z,41.91
2019-03-29T05:55:31.956Z,41.91
2019-03-29T05:56:20.788Z,41.82
2019-03-29T05:57:19.755Z,41.91
2019-03-29T05:58:19.742Z,41.82
2019-03-29T05:59:19.728Z,41.82
2019-03-29T06:00:19.754Z,41.82
2019-03-29T06:01:19.709Z,41.82
2019-03-29T06:02:19.697Z,41.82
2019-03-29T06:03:19.688Z,41.82
2019-03-29T06:04:19.676Z,41.82
2019-03-29T06:05:19.695Z,41.82
2019-03-29T06:06:19.654Z,41.82
2019-03-29T06:07:19.675Z,41.82
2019-03-29T06:08:19.658Z,41.82
2019-03-29T06:09:19.621Z,41.82
2019-03-29T06:10:19.608Z,41.82
2019-03-29T06:11:19.606Z,41.82
2019-03-29T06:12:19.621Z,41.82
2019-03-29T06:13:19.576Z,41.82
2019-03-29T06:14:19.565Z,41.82
2019-03-29T06:15:19.556Z,41.82
2019-03-29T06:16:19.543Z,41.82
2019-03-29T06:17:19.578Z,41.82
2019-03-29T06:18:19.527Z,41.82
2019-03-29T06:19:19.510Z,41.82
2019-03-29T06:20:19.504Z,41.82
2019-03-29T06:21:19.491Z,41.82
2019-03-29T06:22:19.523Z,41.82
2019-03-29T06:23:19.496Z,41.82
2019-03-29T06:24:19.462Z,41.82
2019-03-29T06:25:19.447Z,41.82
2019-03-29T06:26:19.440Z,41.82
2019-03-29T06:27:19.422Z,41.82
2019-03-29T06:28:19.447Z,41.82
2019-03-29T06:29:19.401Z,41.82
2019-03-29T06:30:19.389Z,41.82
2019-03-29T06:31:19.385Z,41.91
2019-03-29T06:32:19.368Z,41.91
2019-03-29T06:33:19.394Z,41.82
2019-03-29T06:34:19.417Z,41.91
2019-03-29T06:35:19.359Z,41.91
2019-03-29T06:36:19.331Z,41.91
2019-03-29T06:37:19.323Z,41.91
2019-03-29T06:38:19.339Z,41.91
2019-03-29T06:39:21.281Z,41.91
2019-03-29T06:40:19.307Z,41.91
2019-03-29T06:41:19.272Z,41.91
2019-03-29T06:42:19.261Z,41.91
2019-03-29T06:43:19.251Z,41.93
2019-03-29T06:44:19.278Z,41.93
2019-03-29T06:45:19.248Z,42.03
2019-03-29T06:46:19.220Z,42.03
2019-03-29T06:47:19.204Z,41.91
2019-03-29T06:48:19.205Z,42.03
2019-03-29T06:49:19.230Z,42.03
2019-03-29T06:50:19.191Z,42.03
2019-03-29T06:51:19.161Z,42.03
2019-03-29T06:52:19.154Z,42.03
2019-03-29T06:53:19.145Z,42.03
2019-03-29T06:54:19.354Z,42.03
2019-03-29T06:55:19.120Z,42.03
2019-03-29T06:56:19.110Z,42.03
2019-03-29T06:57:19.101Z,42.03
2019-03-29T06:58:19.099Z,42.03
2019-03-29T06:59:19.109Z,42.03
2019-03-29T07:00:19.069Z,42.03
2019-03-29T07:01:19.058Z,42.03
2019-03-29T07:02:19.047Z,42.13
2019-03-29T07:03:19.041Z,42.13
2019-03-29T07:04:19.055Z,42.13
2019-03-29T07:05:19.047Z,42.13
2019-03-29T07:06:19.035Z,42.13
2019-03-29T07:07:18.996Z,42.13
2019-03-29T07:08:18.999Z,42.13
2019-03-29T07:09:19.003Z,42.13
2019-03-29T07:10:18.964Z,42.13
2019-03-29T07:11:18.958Z,42.13
2019-03-29T07:12:18.935Z,42.13
2019-03-29T07:13:18.963Z,42.13
2019-03-29T07:14:18.920Z,42.13
2019-03-29T07:15:18.905Z,42.13
2019-03-29T07:16:18.925Z,42.13
2019-03-29T07:17:18.986Z,42.13
2019-03-29T07:18:18.876Z,42.13
2019-03-29T07:19:18.867Z,42.13
2019-03-29T07:20:18.858Z,42.13
2019-03-29T07:21:21.863Z,42.24
2019-03-29T07:22:18.829Z,42.24
2019-03-29T07:23:18.826Z,42.24
2019-03-29T07:24:18.813Z,42.24
2019-03-29T07:25:18.798Z,42.24
2019-03-29T07:26:18.838Z,42.24
2019-03-29T07:27:18.782Z,42.24
2019-03-29T07:28:18.770Z,42.24
2019-03-29T07:29:18.794Z,42.24
2019-03-29T07:30:18.745Z,42.24
2019-03-29T07:31:18.774Z,42.24
2019-03-29T07:32:18.727Z,42.13
2019-03-29T07:33:18.717Z,42.24
2019-03-29T07:34:18.706Z,42.24
2019-03-29T07:35:18.694Z,42.24
2019-03-29T07:36:18.714Z,42.24
2019-03-29T07:37:18.668Z,42.24
2019-03-29T07:38:18.657Z,42.24
2019-03-29T07:39:18.646Z,42.24
2019-03-29T07:40:18.642Z,42.24
2019-03-29T07:41:31.148Z,42.24
2019-03-29T07:42:19.613Z,42.24
2019-03-29T07:43:18.606Z,42.24
2019-03-29T07:44:18.624Z,42.33
2019-03-29T07:45:18.586Z,42.33
2019-03-29T07:46:18.608Z,42.33
2019-03-29T07:47:18.565Z,42.33
2019-03-29T07:48:18.556Z,42.33
2019-03-29T07:49:18.545Z,42.33
2019-03-29T07:50:19.216Z,42.33
2019-03-29T07:51:18.517Z,42.33
2019-03-29T07:52:18.509Z,42.33
2019-03-29T07:53:18.505Z,42.33
2019-03-29T07:54:18.495Z,42.33
2019-03-29T07:55:18.507Z,42.44
2019-03-29T07:56:18.469Z,42.44
2019-03-29T07:57:18.489Z,42.44
2019-03-29T07:58:18.451Z,42.44
2019-03-29T07:59:18.437Z,42.44
2019-03-29T08:00:20.440Z,42.44
2019-03-29T08:01:18.410Z,42.44
2019-03-29T08:02:18.436Z,42.44
2019-03-29T08:03:21.050Z,42.44
2019-03-29T08:04:21.519Z,42.54
2019-03-29T08:05:18.415Z,42.54
2019-03-29T08:06:18.386Z,42.44
2019-03-29T08:07:27.043Z,42.54
2019-03-29T08:08:24.653Z,42.54
2019-03-29T08:09:22.626Z,42.54
2019-03-29T08:10:25.979Z,42.54
2019-03-29T08:11:25.884Z,42.54
2019-03-29T08:12:19.358Z,42.54
2019-03-29T08:13:18.287Z,42.63
2019-03-29T08:14:18.279Z,42.63
2019-03-29T08:15:18.264Z,42.63
2019-03-29T08:16:18.258Z,42.63
2019-03-29T08:17:18.301Z,42.63
2019-03-29T08:18:18.235Z,42.63
2019-03-29T08:19:18.226Z,42.63
2019-03-29T08:20:39.280Z,42.74
2019-03-29T08:21:19.195Z,42.74
2019-03-29T08:22:18.230Z,42.74
2019-03-29T08:23:18.175Z,42.74
2019-03-29T08:24:18.165Z,42.74
2019-03-29T08:25:18.155Z,42.74
2019-03-29T08:26:18.141Z,42.74
2019-03-29T08:27:18.174Z,42.74
2019-03-29T08:28:18.160Z,42.74
2019-03-29T08:29:18.144Z,42.74
2019-03-29T08:30:18.103Z,42.74
2019-03-29T08:31:18.127Z,42.74
2019-03-29T08:32:18.079Z,42.74
2019-03-29T08:33:18.097Z,42.74
2019-03-29T08:34:18.059Z,42.74
2019-03-29T08:35:18.044Z,42.83
2019-03-29T08:36:18.038Z,42.83
2019-03-29T08:37:18.072Z,42.82
2019-03-29T08:38:18.020Z,42.82
2019-03-29T08:39:27.895Z,42.91
2019-03-29T08:40:18.995Z,42.91
2019-03-29T08:41:17.985Z,42.91
2019-03-29T08:42:18.698Z,42.91
2019-03-29T08:43:17.997Z,42.91
2019-03-29T08:44:17.950Z,43.02
2019-03-29T08:45:17.942Z,43.02
2019-03-29T08:46:17.923Z,42.91
2019-03-29T08:47:17.916Z,42.91
2019-03-29T08:48:17.937Z,42.91
2019-03-29T08:49:17.898Z,42.91
2019-03-29T08:50:17.886Z,43.02
2019-03-29T08:51:17.872Z,42.91
2019-03-29T08:52:17.889Z,42.91
2019-03-29T08:53:17.846Z,42.91
2019-03-29T08:54:17.872Z,43.02
2019-03-29T08:55:17.977Z,42.91
2019-03-29T08:56:17.823Z,43.02
2019-03-29T08:57:17.811Z,43.02
2019-03-29T08:58:17.832Z,43.02
2019-03-29T08:59:17.932Z,43.02
2019-03-29T09:00:17.810Z,43.12
2019-03-29T09:01:19.571Z,43.12
2019-03-29T09:02:17.757Z,43.12
2019-03-29T09:03:17.738Z,43.12
2019-03-29T09:04:17.730Z,43.12
2019-03-29T09:05:17.773Z,43.22
2019-03-29T09:06:17.707Z,43.22
2019-03-29T09:07:17.697Z,43.22
2019-03-29T09:08:17.694Z,43.22
2019-03-29T09:09:17.674Z,43.22
2019-03-29T09:10:17.724Z,43.22
2019-03-29T09:11:17.657Z,43.32
2019-03-29T09:12:17.639Z,43.32
2019-03-29T09:13:17.652Z,43.32
2019-03-29T09:14:17.623Z,43.32
2019-03-29T09:15:17.636Z,43.32
2019-03-29T09:16:17.623Z,43.42
2019-03-29T09:17:17.589Z,43.42
2019-03-29T09:18:17.579Z,43.42
2019-03-29T09:19:17.567Z,43.42
2019-03-29T09:20:17.560Z,43.42
2019-03-29T09:21:17.574Z,43.42
2019-03-29T09:22:17.535Z,43.42
2019-03-29T09:23:17.545Z,43.52
2019-03-29T09:24:22.131Z,43.52
2019-03-29T09:25:20.765Z,43.52
2019-03-29T09:26:17.496Z,43.52
2019-03-29T09:27:17.484Z,43.52
2019-03-29T09:28:17.479Z,43.52
2019-03-29T09:29:17.502Z,43.52
2019-03-29T09:30:17.448Z,43.42
2019-03-29T09:31:17.438Z,43.42
2019-03-29T09:32:17.426Z,43.42
2019-03-29T09:33:17.414Z,43.52
2019-03-29T09:34:17.437Z,43.42
2019-03-29T09:35:17.396Z,43.42
2019-03-29T09:36:17.391Z,43.42
2019-03-29T09:37:17.369Z,43.32
2019-03-29T09:38:17.365Z,43.32
2019-03-29T09:39:17.375Z,43.32
2019-03-29T09:40:17.343Z,43.32
2019-03-29T09:41:17.326Z,43.32
2019-03-29T09:42:28.127Z,43.32
2019-03-29T09:43:18.340Z,43.32
2019-03-29T09:44:17.330Z,43.32
2019-03-29T09:45:17.289Z,43.32
2019-03-29T09:46:17.283Z,43.22
2019-03-29T09:47:17.271Z,43.22
2019-03-29T09:48:17.255Z,43.22
2019-03-29T09:49:17.272Z,43.22
2019-03-29T09:50:17.231Z,43.22
2019-03-29T09:51:17.219Z,43.22
2019-03-29T09:52:17.252Z,43.32
2019-03-29T09:53:17.198Z,43.42
2019-03-29T09:54:20.283Z,43.42
2019-03-29T09:55:19.013Z,43.42
2019-03-29T09:56:17.167Z,43.42
2019-03-29T09:57:17.201Z,43.42
2019-03-29T09:58:17.182Z,43.42
2019-03-29T09:59:17.132Z,43.32
2019-03-29T10:00:23.056Z,43.42
2019-03-29T10:01:20.829Z,43.42
2019-03-29T10:02:17.131Z,43.42
2019-03-29T10:03:17.087Z,43.42
2019-03-29T10:04:17.079Z,43.32
2019-03-29T10:05:19.894Z,43.32
2019-03-29T10:06:17.057Z,43.32
2019-03-29T10:07:17.089Z,43.32
2019-03-29T10:08:17.034Z,43.32
2019-03-29T10:09:17.025Z,43.32
2019-03-29T10:10:17.011Z,43.32
2019-03-29T10:11:17.005Z,43.22
2019-03-29T10:12:17.020Z,43.22
2019-03-29T10:13:16.979Z,43.32
2019-03-29T10:14:16.964Z,43.22
2019-03-29T10:15:16.990Z,43.32
2019-03-29T10:16:16.948Z,43.22
2019-03-29T10:17:16.965Z,43.32
2019-03-29T10:18:16.927Z,43.22
2019-03-29T10:19:16.933Z,43.22
2019-03-29T10:20:16.902Z,43.22
2019-03-29T10:21:17.527Z,43.22
2019-03-29T10:22:16.884Z,43.22
2019-03-29T10:23:16.908Z,43.22
2019-03-29T10:24:16.855Z,43.22
2019-03-29T10:25:19.735Z,43.22
2019-03-29T10:26:16.839Z,43.22
2019-03-29T10:27:18.991Z,43.22
2019-03-29T10:28:16.842Z,43.22
2019-03-29T10:29:16.805Z,43.22
2019-03-29T10:30:16.793Z,43.22
2019-03-29T10:31:31.147Z,43.12
2019-03-29T10:32:17.797Z,43.12
2019-03-29T10:33:16.760Z,43.12
2019-03-29T10:34:16.774Z,43.12
2019-03-29T10:35:16.748Z,43.12
2019-03-29T10:36:16.729Z,43.12
2019-03-29T10:37:16.722Z,43.12
2019-03-29T10:38:18.467Z,43.12
2019-03-29T10:39:16.689Z,43.12
2019-03-29T10:40:16.680Z,43.12
2019-03-29T10:41:16.686Z,43.12
2019-03-29T10:42:16.683Z,43.12
2019-03-29T10:43:16.678Z,43.12
2019-03-29T10:44:16.640Z,43.12
2019-03-29T10:45:16.634Z,43.12
2019-03-29T10:46:16.617Z,43.12
2019-03-29T10:47:16.603Z,43.12
2019-03-29T10:48:16.628Z,43.12
2019-03-29T10:49:16.625Z,43.12
2019-03-29T10:50:16.580Z,43.12
2019-03-29T10:51:16.563Z,43.12
2019-03-29T10:52:16.563Z,43.22
2019-03-29T10:53:16.538Z,43.22
2019-03-29T10:54:16.572Z,43.22
2019-03-29T10:55:16.528Z,43.22
2019-03-29T10:56:16.517Z,43.22
2019-03-29T10:57:16.501Z,43.22
2019-03-29T10:58:16.493Z,43.22
2019-03-29T10:59:27.471Z,43.22
2019-03-29T11:00:17.470Z,43.22
2019-03-29T11:01:16.459Z,43.22
2019-03-29T11:02:16.446Z,43.22
2019-03-29T11:03:16.431Z,43.22
2019-03-29T11:04:16.447Z,43.22
2019-03-29T11:05:16.451Z,43.22
2019-03-29T11:06:16.402Z,43.32
2019-03-29T11:07:16.387Z,43.32
2019-03-29T11:08:16.384Z,43.32
2019-03-29T11:09:16.375Z,43.32
2019-03-29T11:10:16.387Z,43.32
2019-03-29T11:11:16.382Z,43.32
2019-03-29T11:12:16.338Z,43.32
2019-03-29T11:13:16.328Z,43.32
2019-03-29T11:14:16.323Z,43.32
2019-03-29T11:15:16.308Z,43.32
2019-03-29T11:16:16.333Z,43.32
2019-03-29T11:17:16.286Z,43.32
2019-03-29T11:18:16.299Z,43.32
2019-03-29T11:19:16.261Z,43.32
2019-03-29T11:20:18.662Z,43.32
2019-03-29T11:21:16.274Z,43.32
2019-03-29T11:22:16.267Z,43.32
2019-03-29T11:23:16.220Z,43.32
2019-03-29T11:24:16.204Z,43.32
2019-03-29T11:25:16.202Z,43.32
2019-03-29T11:26:16.187Z,43.32
2019-03-29T11:27:16.206Z,43.42
2019-03-29T11:28:16.218Z,43.32
2019-03-29T11:29:16.150Z,43.32
2019-03-29T11:30:16.146Z,43.32
2019-03-29T11:31:16.133Z,43.32
2019-03-29T11:32:16.172Z,43.32
2019-03-29T11:33:16.107Z,43.32
2019-03-29T11:34:16.105Z,43.32
2019-03-29T11:35:16.092Z,43.42
2019-03-29T11:36:16.076Z,43.32
2019-03-29T11:37:16.114Z,43.32
2019-03-29T11:38:16.103Z,43.32
2019-03-29T11:39:16.044Z,43.22
2019-03-29T11:40:16.037Z,43.22
2019-03-29T11:41:16.024Z,43.22
2019-03-29T11:42:16.047Z,43.22
2019-03-29T11:43:26.605Z,43.22
2019-03-29T11:44:17.025Z,43.22
2019-03-29T11:45:15.981Z,43.22
2019-03-29T11:46:15.973Z,43.22
2019-03-29T11:47:15.959Z,43.22
2019-03-29T11:48:15.996Z,43.22
2019-03-29T11:49:15.939Z,43.12
2019-03-29T11:50:15.925Z,43.12
2019-03-29T11:51:19.579Z,43.12
2019-03-29T11:52:15.910Z,43.12
2019-03-29T11:53:15.918Z,43.12
2019-03-29T11:54:15.885Z,43.22
2019-03-29T11:55:15.875Z,43.22
2019-03-29T11:56:15.860Z,43.22
2019-03-29T11:57:15.887Z,43.22
2019-03-29T11:58:15.839Z,43.12
2019-03-29T11:59:15.869Z,43.12
2019-03-29T12:00:15.817Z,43.52
2019-03-29T12:01:15.816Z,43.52
2019-03-29T12:02:30.179Z,43.52
2019-03-29T12:03:16.786Z,43.42
2019-03-29T12:04:15.823Z,43.52
2019-03-29T12:05:15.774Z,43.32
2019-03-29T12:06:15.757Z,43.32
2019-03-29T12:07:15.746Z,43.32
2019-03-29T12:08:15.741Z,43.42
2019-03-29T12:09:15.761Z,43.32
2019-03-29T12:10:15.738Z,43.32
2019-03-29T12:11:15.727Z,43.32
2019-03-29T12:12:15.717Z,43.42
2019-03-29T12:13:15.682Z,43.42
2019-03-29T12:14:15.667Z,43.32
2019-03-29T12:15:15.659Z,43.42
2019-03-29T12:16:15.646Z,43.42
2019-03-29T12:17:15.678Z,43.42
2019-03-29T12:18:15.661Z,43.42
2019-03-29T12:19:15.619Z,43.42
2019-03-29T12:20:15.607Z,43.42
2019-03-29T12:21:15.595Z,43.42
2019-03-29T12:22:15.587Z,43.52
2019-03-29T12:23:15.619Z,43.72
2019-03-29T12:24:15.574Z,43.72
2019-03-29T12:25:15.564Z,43.72
2019-03-29T12:26:15.537Z,43.62
2019-03-29T12:27:15.537Z,43.62
2019-03-29T12:28:15.558Z,43.52
2019-03-29T12:29:15.511Z,43.52
2019-03-29T12:30:30.621Z,43.62
2019-03-29T12:31:16.495Z,43.72
2019-03-29T12:32:15.512Z,43.62
2019-03-29T12:33:15.470Z,43.62
2019-03-29T12:34:15.505Z,43.62
2019-03-29T12:35:15.490Z,43.62
2019-03-29T12:36:15.437Z,43.62
2019-03-29T12:37:15.425Z,43.62
2019-03-29T12:38:15.416Z,43.72
2019-03-29T12:39:15.432Z,43.72
2019-03-29T12:40:15.392Z,43.72
2019-03-29T12:41:15.382Z,43.72
2019-03-29T12:42:15.373Z,43.72
2019-03-29T12:43:15.364Z,43.72
2019-03-29T12:44:15.376Z,43.82
2019-03-29T12:45:15.337Z,43.82
2019-03-29T12:46:15.355Z,43.82
2019-03-29T12:47:15.315Z,43.82
2019-03-29T12:48:15.309Z,43.82
2019-03-29T12:49:15.305Z,43.92
2019-03-29T12:50:15.282Z,43.92
2019-03-29T12:51:15.308Z,43.92
2019-03-29T12:52:15.261Z,43.82